sensor_id;sensor_type;location;lat;lon;timestamp;temperature;humidity
39401;DHT22;54391;50.000;7.360;2022-09-09T00:02:19;14.00;69.60
39401;DHT22;54391;50.000;7.360;2022-09-09T00:04:56;14.10;69.60
39401;DHT22;54391;50.000;7.360;2022-09-09T00:07:34;14.00;70.80
39401;DHT22;54391;50.000;7.360;2022-09-09T00:10:14;14.00;72.00
39401;DHT22;54391;50.000;7.360;2022-09-09T00:12:53;14.00;72.30
39401;DHT22;54391;50.000;7.360;2022-09-09T00:15:24;14.00;72.80
39401;DHT22;54391;50.000;7.360;2022-09-09T00:17:56;14.00;72.40
39401;DHT22;54391;50.000;7.360;2022-09-09T00:20:30;14.00;73.20
39401;DHT22;54391;50.000;7.360;2022-09-09T00:23:04;14.10;72.60
39401;DHT22;54391;50.000;7.360;2022-09-09T00:25:42;14.00;72.60
39401;DHT22;54391;50.000;7.360;2022-09-09T00:28:18;13.90;73.60
39401;DHT22;54391;50.000;7.360;2022-09-09T00:30:46;13.90;74.50
39401;DHT22;54391;50.000;7.360;2022-09-09T00:33:17;13.80;74.70
39401;DHT22;54391;50.000;7.360;2022-09-09T00:35:49;13.70;75.00
39401;DHT22;54391;50.000;7.360;2022-09-09T00:38:20;13.70;74.90
39401;DHT22;54391;50.000;7.360;2022-09-09T00:40:52;13.70;76.30
39401;DHT22;54391;50.000;7.360;2022-09-09T00:43:30;13.70;75.60
39401;DHT22;54391;50.000;7.360;2022-09-09T00:46:33;13.70;78.10
39401;DHT22;54391;50.000;7.360;2022-09-09T00:49:15;13.70;77.60
39401;DHT22;54391;50.000;7.360;2022-09-09T00:51:59;13.80;77.00
39401;DHT22;54391;50.000;7.360;2022-09-09T00:54:43;13.60;77.00
39401;DHT22;54391;50.000;7.360;2022-09-09T00:57:21;13.80;76.90
39401;DHT22;54391;50.000;7.360;2022-09-09T00:59:52;13.80;76.80
39401;DHT22;54391;50.000;7.360;2022-09-09T01:02:27;13.90;74.90
39401;DHT22;54391;50.000;7.360;2022-09-09T01:05:01;13.90;74.90
39401;DHT22;54391;50.000;7.360;2022-09-09T01:10:00;14.00;74.30
39401;DHT22;54391;50.000;7.360;2022-09-09T01:12:35;14.00;73.70
39401;DHT22;54391;50.000;7.360;2022-09-09T01:15:09;14.00;74.90
39401;DHT22;54391;50.000;7.360;2022-09-09T01:17:52;13.90;74.20
39401;DHT22;54391;50.000;7.360;2022-09-09T01:20:24;13.70;75.30
39401;DHT22;54391;50.000;7.360;2022-09-09T01:26:23;13.60;77.20
39401;DHT22;54391;50.000;7.360;2022-09-09T01:28:54;13.50;78.40
39401;DHT22;54391;50.000;7.360;2022-09-09T01:31:32;13.40;78.70
39401;DHT22;54391;50.000;7.360;2022-09-09T01:34:09;13.40;78.50
39401;DHT22;54391;50.000;7.360;2022-09-09T01:36:38;13.40;79.00
39401;DHT22;54391;50.000;7.360;2022-09-09T01:39:07;13.50;78.70
39401;DHT22;54391;50.000;7.360;2022-09-09T01:41:37;13.60;78.20
39401;DHT22;54391;50.000;7.360;2022-09-09T01:44:10;13.60;78.30
39401;DHT22;54391;50.000;7.360;2022-09-09T01:46:40;13.70;76.50
39401;DHT22;54391;50.000;7.360;2022-09-09T01:51:42;14.00;74.30
39401;DHT22;54391;50.000;7.360;2022-09-09T01:54:13;14.10;72.90
39401;DHT22;54391;50.000;7.360;2022-09-09T01:56:47;14.20;72.20
39401;DHT22;54391;50.000;7.360;2022-09-09T01:59:41;14.20;72.10
39401;DHT22;54391;50.000;7.360;2022-09-09T02:02:13;14.30;70.30
39401;DHT22;54391;50.000;7.360;2022-09-09T02:04:55;14.40;69.70
39401;DHT22;54391;50.000;7.360;2022-09-09T02:07:34;14.40;69.20
39401;DHT22;54391;50.000;7.360;2022-09-09T02:10:10;14.40;67.90
39401;DHT22;54391;50.000;7.360;2022-09-09T02:12:48;14.50;66.70
39401;DHT22;54391;50.000;7.360;2022-09-09T02:17:50;14.60;66.40
39401;DHT22;54391;50.000;7.360;2022-09-09T02:20:19;14.50;65.40
39401;DHT22;54391;50.000;7.360;2022-09-09T02:23:05;14.70;63.70
39401;DHT22;54391;50.000;7.360;2022-09-09T02:25:36;14.60;63.70
39401;DHT22;54391;50.000;7.360;2022-09-09T02:30:44;14.90;62.00
39401;DHT22;54391;50.000;7.360;2022-09-09T02:35:46;14.90;59.40
39401;DHT22;54391;50.000;7.360;2022-09-09T02:38:20;14.80;59.80
39401;DHT22;54391;50.000;7.360;2022-09-09T02:40:58;15.00;60.30
39401;DHT22;54391;50.000;7.360;2022-09-09T02:43:31;15.20;57.10
39401;DHT22;54391;50.000;7.360;2022-09-09T02:46:05;15.10;56.80
39401;DHT22;54391;50.000;7.360;2022-09-09T02:48:42;14.90;57.30
39401;DHT22;54391;50.000;7.360;2022-09-09T02:51:18;14.90;57.50
39401;DHT22;54391;50.000;7.360;2022-09-09T02:56:19;14.90;58.20
39401;DHT22;54391;50.000;7.360;2022-09-09T02:58:49;15.00;57.00
39401;DHT22;54391;50.000;7.360;2022-09-09T03:01:18;14.90;57.70
39401;DHT22;54391;50.000;7.360;2022-09-09T03:03:45;14.90;57.70
39401;DHT22;54391;50.000;7.360;2022-09-09T03:08:47;14.90;57.70
39401;DHT22;54391;50.000;7.360;2022-09-09T03:16:13;14.70;58.70
39401;DHT22;54391;50.000;7.360;2022-09-09T03:18:47;14.70;58.70
39401;DHT22;54391;50.000;7.360;2022-09-09T03:21:15;14.50;59.50
39401;DHT22;54391;50.000;7.360;2022-09-09T03:23:43;14.60;60.80
39401;DHT22;54391;50.000;7.360;2022-09-09T03:26:12;14.60;61.50
39401;DHT22;54391;50.000;7.360;2022-09-09T03:33:46;14.60;61.70
39401;DHT22;54391;50.000;7.360;2022-09-09T03:36:16;14.60;63.00
39401;DHT22;54391;50.000;7.360;2022-09-09T03:43:40;14.50;64.50
39401;DHT22;54391;50.000;7.360;2022-09-09T03:46:07;14.40;64.80
39401;DHT22;54391;50.000;7.360;2022-09-09T03:48:36;14.50;66.60
39401;DHT22;54391;50.000;7.360;2022-09-09T03:51:05;14.50;67.80
39401;DHT22;54391;50.000;7.360;2022-09-09T03:53:33;14.50;70.80
39401;DHT22;54391;50.000;7.360;2022-09-09T03:56:04;14.40;72.70
39401;DHT22;54391;50.000;7.360;2022-09-09T03:58:33;14.20;75.70
39401;DHT22;54391;50.000;7.360;2022-09-09T04:01:06;14.10;75.70
39401;DHT22;54391;50.000;7.360;2022-09-09T04:03:36;14.20;75.70
39401;DHT22;54391;50.000;7.360;2022-09-09T04:06:06;14.10;75.70
39401;DHT22;54391;50.000;7.360;2022-09-09T04:08:34;14.10;76.10
39401;DHT22;54391;50.000;7.360;2022-09-09T04:11:02;14.10;76.40
39401;DHT22;54391;50.000;7.360;2022-09-09T04:13:34;14.10;76.50
39401;DHT22;54391;50.000;7.360;2022-09-09T04:16:03;14.20;77.50
39401;DHT22;54391;50.000;7.360;2022-09-09T04:18:31;14.20;76.30
39401;DHT22;54391;50.000;7.360;2022-09-09T04:21:01;14.50;74.10
39401;DHT22;54391;50.000;7.360;2022-09-09T04:23:30;14.60;72.40
39401;DHT22;54391;50.000;7.360;2022-09-09T04:26:00;14.70;72.00
39401;DHT22;54391;50.000;7.360;2022-09-09T04:28:34;15.00;72.80
39401;DHT22;54391;50.000;7.360;2022-09-09T04:31:07;14.90;72.20
39401;DHT22;54391;50.000;7.360;2022-09-09T04:33:36;14.90;71.00
39401;DHT22;54391;50.000;7.360;2022-09-09T04:36:06;14.90;71.50
39401;DHT22;54391;50.000;7.360;2022-09-09T04:38:33;15.00;70.90
39401;DHT22;54391;50.000;7.360;2022-09-09T04:41:01;14.90;70.80
39401;DHT22;54391;50.000;7.360;2022-09-09T04:43:29;15.00;69.00
39401;DHT22;54391;50.000;7.360;2022-09-09T04:45:57;14.80;69.50
39401;DHT22;54391;50.000;7.360;2022-09-09T04:48:25;15.00;69.10
39401;DHT22;54391;50.000;7.360;2022-09-09T04:50:57;15.00;69.00
39401;DHT22;54391;50.000;7.360;2022-09-09T04:53:26;15.00;69.10
39401;DHT22;54391;50.000;7.360;2022-09-09T04:56:01;14.90;71.40
39401;DHT22;54391;50.000;7.360;2022-09-09T04:58:31;14.90;68.70
39401;DHT22;54391;50.000;7.360;2022-09-09T05:01:06;14.90;67.20
39401;DHT22;54391;50.000;7.360;2022-09-09T05:03:35;15.00;65.80
39401;DHT22;54391;50.000;7.360;2022-09-09T05:06:07;15.00;66.40
39401;DHT22;54391;50.000;7.360;2022-09-09T05:08:38;15.00;66.40
39401;DHT22;54391;50.000;7.360;2022-09-09T05:11:14;15.10;65.60
39401;DHT22;54391;50.000;7.360;2022-09-09T05:13:41;15.10;63.90
39401;DHT22;54391;50.000;7.360;2022-09-09T05:16:09;15.10;65.60
39401;DHT22;54391;50.000;7.360;2022-09-09T05:18:37;15.10;64.70
39401;DHT22;54391;50.000;7.360;2022-09-09T05:21:06;15.10;65.30
39401;DHT22;54391;50.000;7.360;2022-09-09T05:23:33;15.20;63.80
39401;DHT22;54391;50.000;7.360;2022-09-09T05:26:04;15.20;63.50
39401;DHT22;54391;50.000;7.360;2022-09-09T05:28:34;15.30;62.10
39401;DHT22;54391;50.000;7.360;2022-09-09T05:31:03;15.30;62.10
39401;DHT22;54391;50.000;7.360;2022-09-09T05:33:33;15.30;61.50
39401;DHT22;54391;50.000;7.360;2022-09-09T05:36:04;15.30;62.30
39401;DHT22;54391;50.000;7.360;2022-09-09T05:38:33;15.30;62.30
39401;DHT22;54391;50.000;7.360;2022-09-09T05:41:04;15.30;62.30
39401;DHT22;54391;50.000;7.360;2022-09-09T05:43:31;15.20;62.20
39401;DHT22;54391;50.000;7.360;2022-09-09T05:46:00;15.20;63.60
39401;DHT22;54391;50.000;7.360;2022-09-09T05:50:58;15.30;61.90
39401;DHT22;54391;50.000;7.360;2022-09-09T05:53:28;15.40;61.30
39401;DHT22;54391;50.000;7.360;2022-09-09T05:56:00;15.40;62.70
39401;DHT22;54391;50.000;7.360;2022-09-09T05:58:31;15.30;63.10
39401;DHT22;54391;50.000;7.360;2022-09-09T06:01:03;15.40;62.40
39401;DHT22;54391;50.000;7.360;2022-09-09T06:03:31;15.50;61.90
39401;DHT22;54391;50.000;7.360;2022-09-09T06:06:00;15.50;60.50
39401;DHT22;54391;50.000;7.360;2022-09-09T06:11:01;15.40;62.10
39401;DHT22;54391;50.000;7.360;2022-09-09T06:13:31;15.50;59.70
39401;DHT22;54391;50.000;7.360;2022-09-09T06:15:59;15.40;61.30
39401;DHT22;54391;50.000;7.360;2022-09-09T06:20:57;15.70;55.90
39401;DHT22;54391;50.000;7.360;2022-09-09T06:26:01;14.70;52.80
39401;DHT22;54391;50.000;7.360;2022-09-09T06:28:29;16.20;50.00
39401;DHT22;54391;50.000;7.360;2022-09-09T06:31:01;16.30;47.50
39401;DHT22;54391;50.000;7.360;2022-09-09T06:33:31;16.20;48.80
39401;DHT22;54391;50.000;7.360;2022-09-09T06:36:01;16.20;48.00
39401;DHT22;54391;50.000;7.360;2022-09-09T06:38:29;16.60;46.00
39401;DHT22;54391;50.000;7.360;2022-09-09T06:40:58;17.20;43.90
39401;DHT22;54391;50.000;7.360;2022-09-09T06:43:29;17.70;38.50
39401;DHT22;54391;50.000;7.360;2022-09-09T06:45:57;17.90;38.10
39401;DHT22;54391;50.000;7.360;2022-09-09T06:48:26;18.70;34.10
39401;DHT22;54391;50.000;7.360;2022-09-09T06:51:01;18.90;32.50
39401;DHT22;54391;50.000;7.360;2022-09-09T06:53:30;19.60;26.00
39401;DHT22;54391;50.000;7.360;2022-09-09T06:56:00;20.30;21.80
39401;DHT22;54391;50.000;7.360;2022-09-09T06:58:30;20.40;20.20
39401;DHT22;54391;50.000;7.360;2022-09-09T07:01:03;20.10;20.40
39401;DHT22;54391;50.000;7.360;2022-09-09T07:03:33;18.40;29.10
39401;DHT22;54391;50.000;7.360;2022-09-09T07:06:01;18.30;30.30
39401;DHT22;54391;50.000;7.360;2022-09-09T07:08:30;17.50;34.60
39401;DHT22;54391;50.000;7.360;2022-09-09T07:11:02;17.10;37.20
39401;DHT22;54391;50.000;7.360;2022-09-09T07:13:32;16.50;37.00
39401;DHT22;54391;50.000;7.360;2022-09-09T07:16:04;15.90;50.10
39401;DHT22;54391;50.000;7.360;2022-09-09T07:18:33;15.90;50.60
39401;DHT22;54391;50.000;7.360;2022-09-09T07:21:02;15.70;50.70
39401;DHT22;54391;50.000;7.360;2022-09-09T07:23:30;15.30;55.60
39401;DHT22;54391;50.000;7.360;2022-09-09T07:28:26;16.00;57.40
39401;DHT22;54391;50.000;7.360;2022-09-09T07:30:55;15.60;56.90
39401;DHT22;54391;50.000;7.360;2022-09-09T07:33:23;15.70;53.50
39401;DHT22;54391;50.000;7.360;2022-09-09T07:35:52;15.80;55.20
39401;DHT22;54391;50.000;7.360;2022-09-09T07:38:20;15.80;55.30
39401;DHT22;54391;50.000;7.360;2022-09-09T07:40:49;16.00;54.30
39401;DHT22;54391;50.000;7.360;2022-09-09T07:43:16;16.40;48.20
39401;DHT22;54391;50.000;7.360;2022-09-09T07:45:45;16.30;49.00
39401;DHT22;54391;50.000;7.360;2022-09-09T07:48:13;17.30;43.00
39401;DHT22;54391;50.000;7.360;2022-09-09T07:50:40;16.70;40.90
39401;DHT22;54391;50.000;7.360;2022-09-09T07:53:09;16.30;42.80
39401;DHT22;54391;50.000;7.360;2022-09-09T07:55:37;16.30;44.40
39401;DHT22;54391;50.000;7.360;2022-09-09T07:58:04;17.20;38.20
39401;DHT22;54391;50.000;7.360;2022-09-09T08:00:32;18.60;30.00
39401;DHT22;54391;50.000;7.360;2022-09-09T08:03:00;20.00;22.40
39401;DHT22;54391;50.000;7.360;2022-09-09T08:05:30;19.90;17.90
39401;DHT22;54391;50.000;7.360;2022-09-09T08:07:58;19.80;18.80
39401;DHT22;54391;50.000;7.360;2022-09-09T08:10:30;18.80;22.50
39401;DHT22;54391;50.000;7.360;2022-09-09T08:12:58;18.20;24.40
39401;DHT22;54391;50.000;7.360;2022-09-09T08:15:25;18.90;21.50
39401;DHT22;54391;50.000;7.360;2022-09-09T08:20:20;18.90;20.10
39401;DHT22;54391;50.000;7.360;2022-09-09T08:27:45;18.00;18.20
39401;DHT22;54391;50.000;7.360;2022-09-09T08:30:13;17.80;22.00
39401;DHT22;54391;50.000;7.360;2022-09-09T08:32:40;17.90;22.60
39401;DHT22;54391;50.000;7.360;2022-09-09T08:35:09;17.70;22.70
39401;DHT22;54391;50.000;7.360;2022-09-09T08:37:39;17.80;23.70
39401;DHT22;54391;50.000;7.360;2022-09-09T08:40:10;17.70;26.00
39401;DHT22;54391;50.000;7.360;2022-09-09T08:42:50;17.00;27.40
39401;DHT22;54391;50.000;7.360;2022-09-09T08:45:25;16.90;27.30
39401;DHT22;54391;50.000;7.360;2022-09-09T08:48:15;16.60;29.70
39401;DHT22;54391;50.000;7.360;2022-09-09T08:50:49;16.70;29.80
39401;DHT22;54391;50.000;7.360;2022-09-09T08:53:23;16.40;29.20
39401;DHT22;54391;50.000;7.360;2022-09-09T08:55:57;16.00;30.80
39401;DHT22;54391;50.000;7.360;2022-09-09T08:58:34;15.60;37.90
39401;DHT22;54391;50.000;7.360;2022-09-09T09:03:55;15.30;47.50
39401;DHT22;54391;50.000;7.360;2022-09-09T09:06:37;16.40;42.10
39401;DHT22;54391;50.000;7.360;2022-09-09T09:09:13;17.10;37.00
39401;DHT22;54391;50.000;7.360;2022-09-09T09:11:47;17.10;34.10
39401;DHT22;54391;50.000;7.360;2022-09-09T09:14:19;17.10;34.50
39401;DHT22;54391;50.000;7.360;2022-09-09T09:16:53;17.90;32.10
39401;DHT22;54391;50.000;7.360;2022-09-09T09:19:22;18.60;23.20
39401;DHT22;54391;50.000;7.360;2022-09-09T09:21:58;20.10;18.00
39401;DHT22;54391;50.000;7.360;2022-09-09T09:24:36;20.00;17.50
39401;DHT22;54391;50.000;7.360;2022-09-09T09:27:13;19.50;17.30
39401;DHT22;54391;50.000;7.360;2022-09-09T09:29:48;19.90;16.50
39401;DHT22;54391;50.000;7.360;2022-09-09T09:32:19;18.60;17.00
39401;DHT22;54391;50.000;7.360;2022-09-09T09:34:49;18.60;18.40
39401;DHT22;54391;50.000;7.360;2022-09-09T09:37:25;18.60;17.90
39401;DHT22;54391;50.000;7.360;2022-09-09T09:39:54;18.20;19.90
39401;DHT22;54391;50.000;7.360;2022-09-09T09:42:22;18.30;19.60
39401;DHT22;54391;50.000;7.360;2022-09-09T09:44:53;17.60;18.60
39401;DHT22;54391;50.000;7.360;2022-09-09T09:47:22;17.60;19.10
39401;DHT22;54391;50.000;7.360;2022-09-09T09:50:19;17.50;21.80
39401;DHT22;54391;50.000;7.360;2022-09-09T09:52:54;17.60;20.10
39401;DHT22;54391;50.000;7.360;2022-09-09T09:55:24;17.50;22.40
39401;DHT22;54391;50.000;7.360;2022-09-09T09:57:52;17.50;22.60
39401;DHT22;54391;50.000;7.360;2022-09-09T10:00:22;17.50;22.40
39401;DHT22;54391;50.000;7.360;2022-09-09T10:03:18;17.60;25.00
39401;DHT22;54391;50.000;7.360;2022-09-09T10:05:48;16.90;26.80
39401;DHT22;54391;50.000;7.360;2022-09-09T10:08:17;16.90;28.70
39401;DHT22;54391;50.000;7.360;2022-09-09T10:11:01;16.70;29.50
39401;DHT22;54391;50.000;7.360;2022-09-09T10:13:34;16.50;30.30
39401;DHT22;54391;50.000;7.360;2022-09-09T10:16:18;16.80;34.20
39401;DHT22;54391;50.000;7.360;2022-09-09T10:18:58;16.60;34.30
39401;DHT22;54391;50.000;7.360;2022-09-09T10:21:43;17.40;31.40
39401;DHT22;54391;50.000;7.360;2022-09-09T10:24:37;18.40;27.60
39401;DHT22;54391;50.000;7.360;2022-09-09T10:27:14;19.20;20.00
39401;DHT22;54391;50.000;7.360;2022-09-09T10:30:10;19.20;21.00
39401;DHT22;54391;50.000;7.360;2022-09-09T10:32:47;20.70;14.10
39401;DHT22;54391;50.000;7.360;2022-09-09T10:35:27;20.70;14.30
39401;DHT22;54391;50.000;7.360;2022-09-09T10:38:05;21.30;11.20
39401;DHT22;54391;50.000;7.360;2022-09-09T10:40:41;21.20;9.20
39401;DHT22;54391;50.000;7.360;2022-09-09T10:43:22;21.70;8.10
39401;DHT22;54391;50.000;7.360;2022-09-09T10:45:59;21.50;9.30
39401;DHT22;54391;50.000;7.360;2022-09-09T10:48:40;20.80;11.60
39401;DHT22;54391;50.000;7.360;2022-09-09T10:51:23;18.60;14.30
39401;DHT22;54391;50.000;7.360;2022-09-09T10:54:07;18.60;15.10
39401;DHT22;54391;50.000;7.360;2022-09-09T10:56:39;18.30;17.20
39401;DHT22;54391;50.000;7.360;2022-09-09T10:59:12;18.40;16.70
39401;DHT22;54391;50.000;7.360;2022-09-09T11:01:42;17.60;18.80
39401;DHT22;54391;50.000;7.360;2022-09-09T11:04:16;17.70;19.40
39401;DHT22;54391;50.000;7.360;2022-09-09T11:06:49;18.20;18.00
39401;DHT22;54391;50.000;7.360;2022-09-09T11:09:22;18.20;18.40
39401;DHT22;54391;50.000;7.360;2022-09-09T11:11:53;18.10;20.80
39401;DHT22;54391;50.000;7.360;2022-09-09T11:14:28;18.10;22.00
39401;DHT22;54391;50.000;7.360;2022-09-09T11:16:59;17.60;24.00
39401;DHT22;54391;50.000;7.360;2022-09-09T11:19:34;17.70;22.90
39401;DHT22;54391;50.000;7.360;2022-09-09T11:22:06;17.90;25.30
39401;DHT22;54391;50.000;7.360;2022-09-09T11:24:38;18.30;22.30
39401;DHT22;54391;50.000;7.360;2022-09-09T11:27:10;18.40;23.70
39401;DHT22;54391;50.000;7.360;2022-09-09T11:32:46;21.30;10.90
39401;DHT22;54391;50.000;7.360;2022-09-09T11:35:28;20.70;8.90
39401;DHT22;54391;50.000;7.360;2022-09-09T11:40:57;20.10;9.90
39401;DHT22;54391;50.000;7.360;2022-09-09T11:43:30;19.60;11.40
39401;DHT22;54391;50.000;7.360;2022-09-09T11:46:00;19.50;12.20
39401;DHT22;54391;50.000;7.360;2022-09-09T11:48:32;19.60;12.10
39401;DHT22;54391;50.000;7.360;2022-09-09T11:51:05;20.80;8.10
39401;DHT22;54391;50.000;7.360;2022-09-09T11:53:33;20.80;8.10
39401;DHT22;54391;50.000;7.360;2022-09-09T11:56:10;21.30;7.70
39401;DHT22;54391;50.000;7.360;2022-09-09T11:58:44;21.40;7.50
39401;DHT22;54391;50.000;7.360;2022-09-09T12:01:41;21.50;4.20
39401;DHT22;54391;50.000;7.360;2022-09-09T12:04:26;21.50;4.90
39401;DHT22;54391;50.000;7.360;2022-09-09T12:06:59;21.20;5.00
39401;DHT22;54391;50.000;7.360;2022-09-09T12:09:45;20.30;5.50
39401;DHT22;54391;50.000;7.360;2022-09-09T12:12:24;19.70;6.00
39401;DHT22;54391;50.000;7.360;2022-09-09T12:14:57;19.50;6.50
39401;DHT22;54391;50.000;7.360;2022-09-09T12:17:26;20.40;6.90
39401;DHT22;54391;50.000;7.360;2022-09-09T12:20:03;20.30;7.40
39401;DHT22;54391;50.000;7.360;2022-09-09T12:22:41;20.70;2.90
39401;DHT22;54391;50.000;7.360;2022-09-09T12:25:18;21.10;4.10
39401;DHT22;54391;50.000;7.360;2022-09-09T12:28:00;21.50;2.40
39401;DHT22;54391;50.000;7.360;2022-09-09T12:30:32;21.10;2.10
39401;DHT22;54391;50.000;7.360;2022-09-09T12:33:06;21.20;2.30
39401;DHT22;54391;50.000;7.360;2022-09-09T12:35:35;21.10;2.90
39401;DHT22;54391;50.000;7.360;2022-09-09T12:38:07;20.60;2.90
39401;DHT22;54391;50.000;7.360;2022-09-09T12:40:38;20.20;5.50
39401;DHT22;54391;50.000;7.360;2022-09-09T12:43:17;20.00;4.90
39401;DHT22;54391;50.000;7.360;2022-09-09T12:45:47;19.70;6.50
39401;DHT22;54391;50.000;7.360;2022-09-09T12:48:17;19.40;7.00
39401;DHT22;54391;50.000;7.360;2022-09-09T12:50:48;19.20;8.10
39401;DHT22;54391;50.000;7.360;2022-09-09T12:53:21;18.00;21.50
39401;DHT22;54391;50.000;7.360;2022-09-09T12:55:51;17.90;22.00
39401;DHT22;54391;50.000;7.360;2022-09-09T12:58:19;16.60;40.00
39401;DHT22;54391;50.000;7.360;2022-09-09T13:00:52;16.60;40.30
39401;DHT22;54391;50.000;7.360;2022-09-09T13:03:22;16.30;52.40
39401;DHT22;54391;50.000;7.360;2022-09-09T13:06:13;16.40;49.90
39401;DHT22;54391;50.000;7.360;2022-09-09T13:08:43;16.90;50.40
39401;DHT22;54391;50.000;7.360;2022-09-09T13:11:13;16.90;51.40
39401;DHT22;54391;50.000;7.360;2022-09-09T13:13:42;16.90;44.10
39401;DHT22;54391;50.000;7.360;2022-09-09T13:16:20;16.80;45.20
39401;DHT22;54391;50.000;7.360;2022-09-09T13:18:48;16.80;46.70
39401;DHT22;54391;50.000;7.360;2022-09-09T13:21:15;17.30;45.50
39401;DHT22;54391;50.000;7.360;2022-09-09T13:23:49;17.30;38.70
39401;DHT22;54391;50.000;7.360;2022-09-09T13:26:22;17.50;40.70
39401;DHT22;54391;50.000;7.360;2022-09-09T13:28:51;17.70;36.60
39401;DHT22;54391;50.000;7.360;2022-09-09T13:31:21;17.90;35.70
39401;DHT22;54391;50.000;7.360;2022-09-09T13:33:49;17.90;36.60
39401;DHT22;54391;50.000;7.360;2022-09-09T13:36:28;18.20;35.40
39401;DHT22;54391;50.000;7.360;2022-09-09T13:38:59;17.90;35.50
39401;DHT22;54391;50.000;7.360;2022-09-09T13:41:30;17.60;36.30
39401;DHT22;54391;50.000;7.360;2022-09-09T13:43:59;17.60;36.50
39401;DHT22;54391;50.000;7.360;2022-09-09T13:46:33;17.70;36.30
39401;DHT22;54391;50.000;7.360;2022-09-09T13:49:17;17.80;37.10
39401;DHT22;54391;50.000;7.360;2022-09-09T13:51:46;17.70;33.60
39401;DHT22;54391;50.000;7.360;2022-09-09T13:54:19;17.70;33.60
39401;DHT22;54391;50.000;7.360;2022-09-09T13:56:48;17.60;30.90
39401;DHT22;54391;50.000;7.360;2022-09-09T13:59:18;17.60;30.90
39401;DHT22;54391;50.000;7.360;2022-09-09T14:01:46;17.90;31.50
39401;DHT22;54391;50.000;7.360;2022-09-09T14:04:13;18.00;32.80
39401;DHT22;54391;50.000;7.360;2022-09-09T14:06:42;18.50;29.80
39401;DHT22;54391;50.000;7.360;2022-09-09T14:09:11;18.60;25.50
39401;DHT22;54391;50.000;7.360;2022-09-09T14:11:41;18.00;35.30
39401;DHT22;54391;50.000;7.360;2022-09-09T14:14:09;17.90;36.30
39401;DHT22;54391;50.000;7.360;2022-09-09T14:16:36;17.70;40.30
39401;DHT22;54391;50.000;7.360;2022-09-09T14:19:04;17.30;41.50
39401;DHT22;54391;50.000;7.360;2022-09-09T14:21:36;17.20;43.50
39401;DHT22;54391;50.000;7.360;2022-09-09T14:24:05;17.20;43.60
39401;DHT22;54391;50.000;7.360;2022-09-09T14:26:32;17.10;44.10
39401;DHT22;54391;50.000;7.360;2022-09-09T14:31:30;16.70;46.10
39401;DHT22;54391;50.000;7.360;2022-09-09T14:33:57;16.60;47.30
39401;DHT22;54391;50.000;7.360;2022-09-09T14:36:24;16.50;45.90
39401;DHT22;54391;50.000;7.360;2022-09-09T14:38:52;16.60;50.70
39401;DHT22;54391;50.000;7.360;2022-09-09T14:41:19;15.80;61.40
39401;DHT22;54391;50.000;7.360;2022-09-09T14:43:48;15.80;60.90
39401;DHT22;54391;50.000;7.360;2022-09-09T14:46:18;15.50;68.00
39401;DHT22;54391;50.000;7.360;2022-09-09T14:48:46;15.50;68.90
39401;DHT22;54391;50.000;7.360;2022-09-09T14:51:16;15.10;68.40
39401;DHT22;54391;50.000;7.360;2022-09-09T14:53:44;15.00;69.30
39401;DHT22;54391;50.000;7.360;2022-09-09T14:56:13;14.80;70.20
39401;DHT22;54391;50.000;7.360;2022-09-09T14:58:41;14.80;73.10
39401;DHT22;54391;50.000;7.360;2022-09-09T15:01:10;15.20;75.20
39401;DHT22;54391;50.000;7.360;2022-09-09T15:03:40;15.40;68.40
39401;DHT22;54391;50.000;7.360;2022-09-09T15:06:09;15.60;64.90
39401;DHT22;54391;50.000;7.360;2022-09-09T15:08:37;15.30;69.60
39401;DHT22;54391;50.000;7.360;2022-09-09T15:11:05;14.90;68.10
39401;DHT22;54391;50.000;7.360;2022-09-09T15:13:34;14.90;69.80
39401;DHT22;54391;50.000;7.360;2022-09-09T15:16:07;15.30;71.60
39401;DHT22;54391;50.000;7.360;2022-09-09T15:18:35;14.90;68.20
39401;DHT22;54391;50.000;7.360;2022-09-09T15:21:10;14.90;69.30
39401;DHT22;54391;50.000;7.360;2022-09-09T15:23:38;14.90;67.40
39401;DHT22;54391;50.000;7.360;2022-09-09T15:26:06;14.80;70.50
39401;DHT22;54391;50.000;7.360;2022-09-09T15:28:34;14.90;70.20
39401;DHT22;54391;50.000;7.360;2022-09-09T15:31:06;14.90;71.00
39401;DHT22;54391;50.000;7.360;2022-09-09T15:33:33;14.80;67.80
39401;DHT22;54391;50.000;7.360;2022-09-09T15:36:14;14.70;67.60
39401;DHT22;54391;50.000;7.360;2022-09-09T15:38:42;14.60;67.90
39401;DHT22;54391;50.000;7.360;2022-09-09T15:41:10;14.60;67.60
39401;DHT22;54391;50.000;7.360;2022-09-09T15:43:38;14.60;68.10
39401;DHT22;54391;50.000;7.360;2022-09-09T15:46:22;14.70;65.30
39401;DHT22;54391;50.000;7.360;2022-09-09T15:48:54;14.60;66.50
39401;DHT22;54391;50.000;7.360;2022-09-09T15:53:55;14.50;67.40
39401;DHT22;54391;50.000;7.360;2022-09-09T15:56:23;14.30;66.80
39401;DHT22;54391;50.000;7.360;2022-09-09T15:58:51;14.30;68.30
39401;DHT22;54391;50.000;7.360;2022-09-09T16:03:46;14.20;64.20
39401;DHT22;54391;50.000;7.360;2022-09-09T16:06:16;14.60;65.30
39401;DHT22;54391;50.000;7.360;2022-09-09T16:11:17;14.50;67.60
39401;DHT22;54391;50.000;7.360;2022-09-09T16:13:46;14.50;63.70
39401;DHT22;54391;50.000;7.360;2022-09-09T16:16:15;14.40;63.70
39401;DHT22;54391;50.000;7.360;2022-09-09T16:18:44;14.40;65.00
39401;DHT22;54391;50.000;7.360;2022-09-09T16:21:15;14.40;65.10
39401;DHT22;54391;50.000;7.360;2022-09-09T16:23:42;14.40;66.50
39401;DHT22;54391;50.000;7.360;2022-09-09T16:26:13;14.60;66.60
39401;DHT22;54391;50.000;7.360;2022-09-09T16:28:41;14.60;66.10
39401;DHT22;54391;50.000;7.360;2022-09-09T16:31:11;14.60;64.10
39401;DHT22;54391;50.000;7.360;2022-09-09T16:36:08;14.60;66.40
39401;DHT22;54391;50.000;7.360;2022-09-09T16:38:36;14.60;67.50
39401;DHT22;54391;50.000;7.360;2022-09-09T16:41:05;14.40;65.80
39401;DHT22;54391;50.000;7.360;2022-09-09T16:43:35;14.40;68.50
39401;DHT22;54391;50.000;7.360;2022-09-09T16:46:03;14.50;66.80
39401;DHT22;54391;50.000;7.360;2022-09-09T16:48:32;14.50;67.40
39401;DHT22;54391;50.000;7.360;2022-09-09T16:51:04;14.40;71.30
39401;DHT22;54391;50.000;7.360;2022-09-09T16:53:32;14.50;72.50
39401;DHT22;54391;50.000;7.360;2022-09-09T16:56:05;14.40;71.10
39401;DHT22;54391;50.000;7.360;2022-09-09T17:01:03;14.40;74.00
39401;DHT22;54391;50.000;7.360;2022-09-09T17:03:31;14.30;74.40
39401;DHT22;54391;50.000;7.360;2022-09-09T17:05:59;14.30;76.00
39401;DHT22;54391;50.000;7.360;2022-09-09T17:08:28;17.70;79.00
39401;DHT22;54391;50.000;7.360;2022-09-09T17:10:56;14.10;76.90
39401;DHT22;54391;50.000;7.360;2022-09-09T17:13:25;14.00;75.50
39401;DHT22;54391;50.000;7.360;2022-09-09T17:15:52;13.90;73.90
39401;DHT22;54391;50.000;7.360;2022-09-09T17:18:21;13.70;74.50
39401;DHT22;54391;50.000;7.360;2022-09-09T17:20:48;13.90;78.30
39401;DHT22;54391;50.000;7.360;2022-09-09T17:23:15;13.80;74.50